createdAt,value
2017-11-05T00:00:32.121Z,21.95
2017-11-05T00:02:57.890Z,22.00
2017-11-05T00:05:23.695Z,21.88
2017-11-05T00:07:49.440Z,21.84
2017-11-05T00:10:15.221Z,21.79
2017-11-05T00:12:40.975Z,21.94
2017-11-05T00:15:06.759Z,21.95
2017-11-05T00:17:32.561Z,21.95
2017-11-05T00:19:58.350Z,21.94
2017-11-05T00:22:24.243Z,21.94
2017-11-05T00:24:49.991Z,21.94
2017-11-05T00:27:15.748Z,21.96
2017-11-05T00:29:41.501Z,21.89
2017-11-05T00:32:07.272Z,21.96
2017-11-05T00:34:33.026Z,21.93
2017-11-05T00:36:58.813Z,21.87
2017-11-05T00:39:24.576Z,21.86
2017-11-05T00:41:50.363Z,21.85
2017-11-05T00:44:16.113Z,21.92
2017-11-05T00:46:41.867Z,21.95
2017-11-05T00:49:07.624Z,21.89
2017-11-05T00:51:33.377Z,21.93
2017-11-05T00:53:59.169Z,21.93
2017-11-05T00:56:24.927Z,21.90
2017-11-05T00:58:50.681Z,21.86
2017-11-05T01:01:16.438Z,21.88
2017-11-05T01:03:42.196Z,21.88
2017-11-05T01:06:08.001Z,21.77
2017-11-05T01:08:33.761Z,21.82
2017-11-05T01:10:59.513Z,21.85
2017-11-05T01:13:25.299Z,21.84
2017-11-05T01:15:51.054Z,21.85
2017-11-05T01:18:16.824Z,21.85
2017-11-05T01:20:42.648Z,21.89
2017-11-05T01:23:08.397Z,21.90
2017-11-05T01:25:34.168Z,21.90
2017-11-05T01:28:00.119Z,21.88
2017-11-05T01:30:25.882Z,21.87
2017-11-05T01:32:51.815Z,21.82
2017-11-05T01:35:18.228Z,21.80
2017-11-05T01:37:43.984Z,21.85
2017-11-05T01:40:09.745Z,21.82
2017-11-05T01:42:35.669Z,21.86
2017-11-05T01:45:01.417Z,21.88
2017-11-05T01:47:27.200Z,21.86
2017-11-05T01:49:52.961Z,21.87
2017-11-05T01:52:18.729Z,21.86
2017-11-05T01:54:44.484Z,21.90
2017-11-05T01:57:10.272Z,21.82
2017-11-05T01:59:36.031Z,21.74
2017-11-05T02:02:01.784Z,21.79
2017-11-05T02:04:27.555Z,21.82
2017-11-05T02:06:54.093Z,21.83
2017-11-05T02:09:19.869Z,21.82
2017-11-05T02:11:45.623Z,21.86
2017-11-05T02:14:11.387Z,21.83
2017-11-05T02:16:37.144Z,21.81
2017-11-05T02:19:02.941Z,21.82
2017-11-05T02:21:29.271Z,21.75
2017-11-05T02:23:55.019Z,21.76
2017-11-05T02:26:20.787Z,21.83
2017-11-05T02:28:46.545Z,21.83
2017-11-05T02:31:12.295Z,21.77
2017-11-05T02:33:38.044Z,21.81
2017-11-05T02:36:03.799Z,21.80
2017-11-05T02:38:29.560Z,21.73
2017-11-05T02:40:55.348Z,21.74
2017-11-05T02:43:21.097Z,21.81
2017-11-05T02:45:46.856Z,21.89
2017-11-05T02:48:12.730Z,21.92
2017-11-05T02:50:38.485Z,21.92
2017-11-05T02:53:04.328Z,22.02
2017-11-05T02:55:30.137Z,21.96
2017-11-05T02:57:55.890Z,21.95
2017-11-05T03:00:21.656Z,21.99
2017-11-05T03:02:47.446Z,21.95
2017-11-05T03:05:13.212Z,22.03
2017-11-05T03:07:39.000Z,22.00
2017-11-05T03:10:04.755Z,21.95
2017-11-05T03:12:30.591Z,21.96
2017-11-05T03:14:56.501Z,21.97
2017-11-05T03:17:22.294Z,21.85
2017-11-05T03:19:48.038Z,21.88
2017-11-05T03:22:13.795Z,21.87
2017-11-05T03:24:39.575Z,21.91
2017-11-05T03:27:05.384Z,21.90
2017-11-05T03:29:31.128Z,21.90
2017-11-05T03:31:56.908Z,21.86
2017-11-05T03:34:22.670Z,21.90
2017-11-05T03:36:48.478Z,21.86
2017-11-05T03:39:14.228Z,21.88
2017-11-05T03:41:40.003Z,21.88
2017-11-05T03:44:05.781Z,21.88
2017-11-05T03:46:31.551Z,21.79
2017-11-05T03:48:57.322Z,21.74
2017-11-05T03:51:23.114Z,21.84
2017-11-05T03:53:48.915Z,21.87
2017-11-05T03:56:14.735Z,21.86
2017-11-05T03:58:40.556Z,21.83
2017-11-05T04:01:06.359Z,21.85
2017-11-05T04:03:32.111Z,21.85
2017-11-05T04:05:57.865Z,21.84
2017-11-05T04:08:23.622Z,21.81
2017-11-05T04:10:50.111Z,21.75
2017-11-05T04:13:15.868Z,21.76
2017-11-05T04:15:41.635Z,21.70
2017-11-05T04:18:07.392Z,21.76
2017-11-05T04:20:33.184Z,21.79
2017-11-05T04:22:58.987Z,21.78
2017-11-05T04:25:24.748Z,21.84
2017-11-05T04:27:50.505Z,21.85
2017-11-05T04:30:18.161Z,21.81
2017-11-05T04:32:43.921Z,21.80
2017-11-05T04:35:09.928Z,21.83
2017-11-05T04:37:35.740Z,21.84
2017-11-05T04:40:01.676Z,21.73
2017-11-05T04:42:27.457Z,21.71
2017-11-05T04:44:53.254Z,21.79
2017-11-05T04:47:19.086Z,21.78
2017-11-05T04:49:44.849Z,21.82
2017-11-05T04:52:10.615Z,21.86
2017-11-05T04:54:36.384Z,21.79
2017-11-05T04:57:02.200Z,21.78
2017-11-05T04:59:27.982Z,21.78
2017-11-05T05:01:53.736Z,21.78
2017-11-05T05:04:19.497Z,21.69
2017-11-05T05:06:45.248Z,21.70
2017-11-05T05:09:11.070Z,21.74
2017-11-05T05:11:36.833Z,21.80
2017-11-05T05:14:02.619Z,21.82
2017-11-05T05:16:28.520Z,21.79
2017-11-05T05:18:54.277Z,21.73
2017-11-05T05:21:20.154Z,21.76
2017-11-05T05:23:45.906Z,21.79
2017-11-05T05:26:11.656Z,21.82
2017-11-05T05:28:37.419Z,21.70
2017-11-05T05:31:03.175Z,21.66
2017-11-05T05:33:28.938Z,21.73
2017-11-05T05:35:54.700Z,21.76
2017-11-05T05:38:21.302Z,21.80
2017-11-05T05:40:47.215Z,21.85
2017-11-05T05:43:13.044Z,21.89
2017-11-05T05:45:38.815Z,21.87
2017-11-05T05:48:04.577Z,21.89
2017-11-05T05:50:30.323Z,21.76
2017-11-05T05:52:56.227Z,21.78
2017-11-05T05:55:21.992Z,21.89
2017-11-05T05:57:47.867Z,21.87
2017-11-05T06:00:13.691Z,21.86
2017-11-05T06:02:39.452Z,21.86
2017-11-05T06:05:05.226Z,21.88
2017-11-05T06:07:30.985Z,21.88
2017-11-05T06:09:56.758Z,21.87
2017-11-05T06:12:22.528Z,21.89
2017-11-05T06:14:48.292Z,21.91
2017-11-05T06:17:14.044Z,21.87
2017-11-05T06:19:39.806Z,21.81
2017-11-05T06:22:05.584Z,21.84
2017-11-05T06:24:31.340Z,21.89
2017-11-05T06:26:57.111Z,21.83
2017-11-05T06:29:22.892Z,21.84
2017-11-05T06:31:48.695Z,21.82
2017-11-05T06:34:14.466Z,21.87
2017-11-05T06:36:40.276Z,21.85
2017-11-05T06:39:06.058Z,21.85
2017-11-05T06:41:31.864Z,21.86
2017-11-05T06:43:57.645Z,21.85
2017-11-05T06:46:23.404Z,21.78
2017-11-05T06:48:49.196Z,21.85
2017-11-05T06:51:14.960Z,21.82
2017-11-05T06:53:40.776Z,21.84
2017-11-05T06:56:06.536Z,21.85
2017-11-05T06:58:32.296Z,21.83
2017-11-05T07:00:58.120Z,21.78
2017-11-05T07:03:23.880Z,21.81
2017-11-05T07:05:49.627Z,21.93
2017-11-05T07:08:15.388Z,21.93
2017-11-05T07:10:41.199Z,21.91
2017-11-05T07:13:06.947Z,21.67
2017-11-05T07:15:32.712Z,21.89
2017-11-05T07:17:58.492Z,21.89
2017-11-05T07:20:24.249Z,21.86
2017-11-05T07:22:50.044Z,21.77
2017-11-05T07:25:15.849Z,21.85
2017-11-05T07:27:41.640Z,21.84
2017-11-05T07:30:07.432Z,21.87
2017-11-05T07:32:33.211Z,21.91
2017-11-05T07:34:59.018Z,21.91
2017-11-05T07:37:24.776Z,21.94
2017-11-05T07:39:50.553Z,21.86
2017-11-05T07:42:16.339Z,21.82
2017-11-05T07:44:42.151Z,21.82
2017-11-05T07:47:07.971Z,21.83
2017-11-05T07:49:33.731Z,21.84
2017-11-05T07:51:59.569Z,21.81
2017-11-05T07:54:25.327Z,21.90
2017-11-05T07:56:51.110Z,21.82
2017-11-05T07:59:16.862Z,21.86
2017-11-05T08:01:42.641Z,21.81
2017-11-05T08:04:08.401Z,21.86
2017-11-05T08:06:34.179Z,21.93
2017-11-05T08:08:59.962Z,21.95
2017-11-05T08:11:25.757Z,22.00
2017-11-05T08:13:51.557Z,22.01
2017-11-05T08:16:17.353Z,21.99
2017-11-05T08:18:43.125Z,22.05
2017-11-05T08:21:08.893Z,22.00
2017-11-05T08:23:34.691Z,22.01
2017-11-05T08:26:00.444Z,22.03
2017-11-05T08:28:26.316Z,21.98
2017-11-05T08:30:52.069Z,21.88
2017-11-05T08:33:17.961Z,21.64
2017-11-05T08:35:43.708Z,21.65
2017-11-05T08:38:09.464Z,21.55
2017-11-05T08:40:35.320Z,21.58
2017-11-05T08:43:01.076Z,21.53
2017-11-05T08:45:26.858Z,21.69
2017-11-05T08:47:52.609Z,21.55
2017-11-05T08:50:19.482Z,21.53
2017-11-05T08:52:45.292Z,21.40
2017-11-05T08:55:12.068Z,21.52
2017-11-05T08:57:37.829Z,21.31
2017-11-05T09:00:03.584Z,21.38
2017-11-05T09:02:29.350Z,21.51
2017-11-05T09:04:55.113Z,21.61
2017-11-05T09:07:20.880Z,21.76
2017-11-05T09:09:46.645Z,21.87
2017-11-05T09:12:12.505Z,21.56
2017-11-05T09:14:38.260Z,21.54
2017-11-05T09:17:04.016Z,21.48
2017-11-05T09:19:29.763Z,21.46
2017-11-05T09:21:55.518Z,21.43
2017-11-05T09:24:21.264Z,21.45
2017-11-05T09:26:47.027Z,21.48
2017-11-05T09:29:12.831Z,21.35
2017-11-05T09:31:38.585Z,21.29
2017-11-05T09:34:04.335Z,21.48
2017-11-05T09:36:30.231Z,21.32
2017-11-05T09:38:55.989Z,21.46
2017-11-05T09:41:21.765Z,21.52
2017-11-05T09:43:47.533Z,21.40
2017-11-05T09:46:13.372Z,21.39
2017-11-05T09:48:39.487Z,21.37
2017-11-05T09:51:05.424Z,21.43
2017-11-05T09:53:31.331Z,21.46
2017-11-05T09:55:57.103Z,21.52
2017-11-05T09:58:22.856Z,21.48
2017-11-05T10:00:48.608Z,21.42
2017-11-05T10:03:14.395Z,21.44
2017-11-05T10:05:40.143Z,21.42
2017-11-05T10:08:05.941Z,21.46
2017-11-05T10:10:31.709Z,21.38
2017-11-05T10:12:58.818Z,21.52
2017-11-05T10:15:24.924Z,21.52
2017-11-05T10:17:50.799Z,21.45
2017-11-05T10:20:20.009Z,21.47
2017-11-05T10:22:45.766Z,21.36
2017-11-05T10:25:11.556Z,21.46
2017-11-05T10:27:37.374Z,21.35
2017-11-05T10:30:03.131Z,21.37
2017-11-05T10:32:28.892Z,21.58
2017-11-05T10:34:54.687Z,21.66
2017-11-05T10:37:20.726Z,21.58
2017-11-05T10:39:46.477Z,21.51
2017-11-05T10:42:12.471Z,21.62
2017-11-05T10:44:38.235Z,21.52
2017-11-05T10:47:04.017Z,21.61
2017-11-05T10:49:29.822Z,21.59
2017-11-05T10:51:55.569Z,21.74
2017-11-05T10:54:21.697Z,21.74
2017-11-05T10:56:48.351Z,21.77
2017-11-05T10:59:14.108Z,21.78
2017-11-05T11:01:39.916Z,21.82
2017-11-05T11:04:05.673Z,21.89
2017-11-05T11:06:31.437Z,21.97
2017-11-05T11:08:57.276Z,21.94
2017-11-05T11:11:23.080Z,22.02
2017-11-05T11:13:48.866Z,21.89
2017-11-05T11:16:14.624Z,21.85
2017-11-05T11:18:40.422Z,21.86
2017-11-05T11:21:06.181Z,21.86
2017-11-05T11:23:31.987Z,21.86
2017-11-05T11:25:57.917Z,21.89
2017-11-05T11:28:23.681Z,21.90
2017-11-05T11:30:50.109Z,21.88
2017-11-05T11:33:15.863Z,21.94
2017-11-05T11:35:41.673Z,21.95
2017-11-05T11:38:07.429Z,21.92
2017-11-05T11:40:33.192Z,21.92
2017-11-05T11:42:58.946Z,21.90
2017-11-05T11:45:24.712Z,21.90
2017-11-05T11:47:50.463Z,21.89
2017-11-05T11:50:17.093Z,21.94
2017-11-05T11:52:42.899Z,21.97
2017-11-05T11:55:08.658Z,21.96
2017-11-05T11:57:34.422Z,21.98
2017-11-05T12:00:00.297Z,22.00
2017-11-05T12:02:26.105Z,22.08
2017-11-05T12:04:52.056Z,22.03
2017-11-05T12:07:17.827Z,22.01
2017-11-05T12:09:43.686Z,21.93
2017-11-05T12:12:09.435Z,21.89
2017-11-05T12:14:35.327Z,21.91
2017-11-05T12:17:01.092Z,21.92
2017-11-05T12:19:26.961Z,21.94
2017-11-05T12:21:52.735Z,21.97
2017-11-05T12:24:18.484Z,21.94
2017-11-05T12:26:44.253Z,21.96
2017-11-05T12:29:10.063Z,21.96
2017-11-05T12:31:35.826Z,21.91
2017-11-05T12:34:01.584Z,21.98
2017-11-05T12:36:27.343Z,21.94
2017-11-05T12:38:53.111Z,21.92
2017-11-05T12:41:18.927Z,21.97
2017-11-05T12:43:44.712Z,21.84
2017-11-05T12:46:10.665Z,21.85
2017-11-05T12:48:36.421Z,21.93
2017-11-05T12:51:02.178Z,21.95
2017-11-05T12:53:27.947Z,22.04
2017-11-05T12:55:53.704Z,22.13
2017-11-05T12:58:19.465Z,22.09
2017-11-05T13:00:45.212Z,22.17
2017-11-05T13:03:10.983Z,22.26
2017-11-05T13:05:36.749Z,22.19
2017-11-05T13:08:02.548Z,22.28
2017-11-05T13:10:28.324Z,22.24
2017-11-05T13:12:54.221Z,22.16
2017-11-05T13:15:19.976Z,22.15
2017-11-05T13:17:45.929Z,22.19
2017-11-05T13:20:11.696Z,22.14
2017-11-05T13:22:37.675Z,22.13
2017-11-05T13:25:03.436Z,22.10
2017-11-05T13:27:29.205Z,22.14
2017-11-05T13:29:55.010Z,22.16
2017-11-05T13:32:20.773Z,22.17
2017-11-05T13:34:46.523Z,22.18
2017-11-05T13:37:12.277Z,22.13
2017-11-05T13:39:38.055Z,22.11
2017-11-05T13:42:03.849Z,22.10
2017-11-05T13:44:29.609Z,22.01
2017-11-05T13:46:55.379Z,21.94
2017-11-05T13:49:21.192Z,21.90
2017-11-05T13:51:46.962Z,21.88
2017-11-05T13:54:13.708Z,21.79
2017-11-05T13:56:39.470Z,21.85
2017-11-05T13:59:05.278Z,21.87
2017-11-05T14:01:31.041Z,21.83
2017-11-05T14:03:56.837Z,21.80
2017-11-05T14:06:22.597Z,21.98
2017-11-05T14:08:48.352Z,21.82
2017-11-05T14:11:14.136Z,21.91
2017-11-05T14:13:39.909Z,21.89
2017-11-05T14:16:06.527Z,21.91
2017-11-05T14:18:33.269Z,21.97
2017-11-05T14:21:03.898Z,21.98
2017-11-05T14:23:29.962Z,21.93
2017-11-05T14:25:56.090Z,21.93
2017-11-05T14:28:23.175Z,21.95
2017-11-05T14:30:49.049Z,22.01
2017-11-05T14:33:14.820Z,22.00
2017-11-05T14:35:40.573Z,21.95
2017-11-05T14:38:06.331Z,21.93
2017-11-05T14:40:32.092Z,21.98
2017-11-05T14:42:57.881Z,22.01
2017-11-05T14:45:23.644Z,22.05
2017-11-05T14:47:49.416Z,21.99
2017-11-05T14:50:15.213Z,21.98
2017-11-05T14:52:40.982Z,22.00
2017-11-05T14:55:06.744Z,21.99
2017-11-05T14:57:32.524Z,21.97
2017-11-05T14:59:58.472Z,22.06
2017-11-05T15:02:24.220Z,21.98
2017-11-05T15:04:49.980Z,22.07
2017-11-05T15:07:15.763Z,22.09
2017-11-05T15:09:41.533Z,22.06
2017-11-05T15:12:07.346Z,22.00
2017-11-05T15:14:33.128Z,22.04
2017-11-05T15:16:58.896Z,22.10
2017-11-05T15:19:24.696Z,22.08
2017-11-05T15:21:50.471Z,22.11
2017-11-05T15:24:16.305Z,22.15
2017-11-05T15:26:42.056Z,22.08
2017-11-05T15:29:07.863Z,22.04
2017-11-05T15:31:33.638Z,22.07
2017-11-05T15:33:59.432Z,22.07
2017-11-05T15:36:25.204Z,22.03
2017-11-05T15:38:50.980Z,22.27
2017-11-05T15:41:16.799Z,22.27
2017-11-05T15:43:42.613Z,22.14
2017-11-05T15:46:08.389Z,22.14
2017-11-05T15:48:34.177Z,22.14
2017-11-05T15:50:59.959Z,22.13
2017-11-05T15:53:25.768Z,22.17
2017-11-05T15:55:51.555Z,22.17
2017-11-05T15:58:17.327Z,22.14
2017-11-05T16:00:43.090Z,22.14
2017-11-05T16:03:08.907Z,22.13
2017-11-05T16:05:34.748Z,22.15
2017-11-05T16:08:00.503Z,22.14
2017-11-05T16:10:26.287Z,22.18
2017-11-05T16:12:52.166Z,22.06
2017-11-05T16:15:17.935Z,22.11
2017-11-05T16:17:43.758Z,22.10
2017-11-05T16:20:09.557Z,22.10
2017-11-05T16:22:35.364Z,22.14
2017-11-05T16:25:01.153Z,22.17
2017-11-05T16:27:26.923Z,22.13
2017-11-05T16:29:52.736Z,22.12
2017-11-05T16:32:18.496Z,22.08
2017-11-05T16:34:44.265Z,22.13
2017-11-05T16:37:10.040Z,22.08
2017-11-05T16:39:36.857Z,22.12
2017-11-05T16:42:02.771Z,22.25
2017-11-05T16:44:28.668Z,22.13
2017-11-05T16:46:54.459Z,22.13
2017-11-05T16:49:20.239Z,22.02
2017-11-05T16:51:46.016Z,22.00
2017-11-05T16:54:11.805Z,22.05
2017-11-05T16:56:37.677Z,22.10
2017-11-05T16:59:03.459Z,22.11
2017-11-05T17:01:29.469Z,22.17
2017-11-05T17:03:55.236Z,22.12
2017-11-05T17:06:21.005Z,22.09
2017-11-05T17:08:46.784Z,22.13
2017-11-05T17:11:12.552Z,22.11
2017-11-05T17:13:38.321Z,22.13
2017-11-05T17:16:04.124Z,22.15
2017-11-05T17:18:29.887Z,22.16
2017-11-05T17:20:55.687Z,22.14
2017-11-05T17:23:21.452Z,22.14
2017-11-05T17:25:47.214Z,22.07
2017-11-05T17:28:13.012Z,22.13
2017-11-05T17:30:38.822Z,22.17
2017-11-05T17:33:04.656Z,22.05
2017-11-05T17:35:30.453Z,22.06
2017-11-05T17:37:56.597Z,22.09
2017-11-05T17:40:22.361Z,22.11
2017-11-05T17:42:48.122Z,22.04
2017-11-05T17:45:13.895Z,22.11
2017-11-05T17:47:39.666Z,22.11
2017-11-05T17:50:06.409Z,22.14
2017-11-05T17:52:32.192Z,22.14
2017-11-05T17:54:58.002Z,22.24
2017-11-05T17:57:23.789Z,22.15
2017-11-05T17:59:49.543Z,22.17
2017-11-05T18:02:15.296Z,22.34
2017-11-05T18:04:41.056Z,22.36
2017-11-05T18:07:06.803Z,22.32
2017-11-05T18:09:32.581Z,22.18
2017-11-05T18:11:58.337Z,22.16
2017-11-05T18:14:24.993Z,22.21
2017-11-05T18:16:50.766Z,22.17
2017-11-05T18:19:16.553Z,22.28
2017-11-05T18:21:42.311Z,22.19
2017-11-05T18:24:08.098Z,22.24
2017-11-05T18:26:34.280Z,22.18
2017-11-05T18:29:00.057Z,22.17
2017-11-05T18:31:25.822Z,22.17
2017-11-05T18:33:51.581Z,22.19
2017-11-05T18:36:17.401Z,22.21
2017-11-05T18:38:44.682Z,22.19
2017-11-05T18:41:10.444Z,22.20
2017-11-05T18:43:38.329Z,22.11
2017-11-05T18:46:04.092Z,22.08
2017-11-05T18:48:29.861Z,22.14
2017-11-05T18:50:55.626Z,22.26
2017-11-05T18:53:21.507Z,22.33
2017-11-05T18:55:47.276Z,22.16
2017-11-05T18:58:13.793Z,22.11
2017-11-05T19:00:39.568Z,22.10
2017-11-05T19:03:05.345Z,22.16
2017-11-05T19:05:31.108Z,22.21
2017-11-05T19:07:56.882Z,22.19
2017-11-05T19:10:22.791Z,22.11
2017-11-05T19:12:48.730Z,22.08
2017-11-05T19:15:14.492Z,22.07
2017-11-05T19:17:40.263Z,22.12
2017-11-05T19:20:06.022Z,22.14
2017-11-05T19:22:31.832Z,22.14
2017-11-05T19:24:57.596Z,22.12
2017-11-05T19:27:23.966Z,22.18
2017-11-05T19:29:49.735Z,22.07
2017-11-05T19:32:15.536Z,22.08
2017-11-05T19:34:41.313Z,22.14
2017-11-05T19:37:07.068Z,22.10
2017-11-05T19:39:33.021Z,22.17
2017-11-05T19:41:58.785Z,22.21
2017-11-05T19:44:24.565Z,22.08
2017-11-05T19:46:51.074Z,22.12
2017-11-05T19:49:19.756Z,22.06
2017-11-05T19:51:45.577Z,22.06
2017-11-05T19:54:11.556Z,22.18
2017-11-05T19:56:37.343Z,22.06
2017-11-05T19:59:03.126Z,22.07
2017-11-05T20:01:29.670Z,22.07
2017-11-05T20:03:56.393Z,22.09
2017-11-05T20:06:22.212Z,22.04
2017-11-05T20:08:49.162Z,22.13
2017-11-05T20:11:14.920Z,22.19
2017-11-05T20:13:40.840Z,21.82
2017-11-05T20:16:06.713Z,21.81
2017-11-05T20:18:32.540Z,21.51
2017-11-05T20:20:59.308Z,21.75
2017-11-05T20:23:25.073Z,21.73
2017-11-05T20:25:50.839Z,21.80
2017-11-05T20:28:16.719Z,21.90
2017-11-05T20:30:42.500Z,21.90
2017-11-05T20:33:08.397Z,21.98
2017-11-05T20:35:34.173Z,22.06
2017-11-05T20:38:01.102Z,21.89
2017-11-05T20:40:26.868Z,21.96
2017-11-05T20:42:52.727Z,22.04
2017-11-05T20:45:18.675Z,22.01
2017-11-05T20:47:44.712Z,22.02
2017-11-05T20:50:10.583Z,22.00
2017-11-05T20:52:36.540Z,22.03
2017-11-05T20:55:02.473Z,22.03
2017-11-05T20:57:28.306Z,22.10
2017-11-05T20:59:54.172Z,22.08
2017-11-05T21:02:19.959Z,22.12
2017-11-05T21:04:47.233Z,22.07
2017-11-05T21:07:13.129Z,22.01
2017-11-05T21:09:38.967Z,22.11
2017-11-05T21:12:04.783Z,22.04
2017-11-05T21:14:30.718Z,21.98
2017-11-05T21:16:56.597Z,21.97
2017-11-05T21:19:23.034Z,21.97
2017-11-05T21:21:49.864Z,22.08
2017-11-05T21:24:15.676Z,22.17
2017-11-05T21:26:41.437Z,22.04
2017-11-05T21:29:07.436Z,21.98
2017-11-05T21:31:33.209Z,21.99
2017-11-05T21:34:00.101Z,21.97
2017-11-05T21:36:25.957Z,21.97
2017-11-05T21:38:51.724Z,22.15
2017-11-05T21:41:17.492Z,22.10
2017-11-05T21:43:43.246Z,22.00
2017-11-05T21:46:09.004Z,22.02
2017-11-05T21:48:34.753Z,22.04
2017-11-05T21:51:01.159Z,22.04
2017-11-05T21:53:26.923Z,22.10
2017-11-05T21:55:54.168Z,22.13
2017-11-05T21:58:27.737Z,22.08
2017-11-05T22:00:53.501Z,22.00
2017-11-05T22:03:19.256Z,21.98
2017-11-05T22:05:45.120Z,21.99
2017-11-05T22:08:10.883Z,22.03
2017-11-05T22:10:36.965Z,22.03
2017-11-05T22:13:03.919Z,22.11
2017-11-05T22:15:29.674Z,22.11
2017-11-05T22:17:55.556Z,22.02
2017-11-05T22:20:22.951Z,21.99
2017-11-05T22:22:48.736Z,22.03
2017-11-05T22:25:14.499Z,21.98
2017-11-05T22:27:40.371Z,22.06
2017-11-05T22:30:06.144Z,22.10
2017-11-05T22:32:32.235Z,22.01
2017-11-05T22:34:59.808Z,22.02
2017-11-05T22:37:26.695Z,22.01
2017-11-05T22:39:52.450Z,22.00
2017-11-05T22:42:18.517Z,22.09
2017-11-05T22:44:44.450Z,22.04
2017-11-05T22:47:10.305Z,22.05
2017-11-05T22:49:36.064Z,22.00
2017-11-05T22:52:01.948Z,22.04
2017-11-05T22:54:27.714Z,22.01
2017-11-05T22:56:53.465Z,22.03
2017-11-05T22:59:19.321Z,22.04
2017-11-05T23:01:45.080Z,22.03
2017-11-05T23:04:10.837Z,22.07
2017-11-05T23:06:36.628Z,22.04
2017-11-05T23:09:02.423Z,22.05
2017-11-05T23:11:28.172Z,22.11
2017-11-05T23:13:53.939Z,21.97
2017-11-05T23:16:19.727Z,22.00
2017-11-05T23:18:45.490Z,22.11
2017-11-05T23:21:11.248Z,21.99
2017-11-05T23:23:37.184Z,22.10
2017-11-05T23:26:02.988Z,22.05
2017-11-05T23:28:28.753Z,21.94
2017-11-05T23:30:54.543Z,21.91
2017-11-05T23:33:20.304Z,21.97
2017-11-05T23:35:46.186Z,21.92
2017-11-05T23:38:12.100Z,22.01
2017-11-05T23:40:37.928Z,21.99
2017-11-05T23:43:03.736Z,21.96
2017-11-05T23:45:29.512Z,21.90
2017-11-05T23:47:55.267Z,21.90
2017-11-05T23:50:21.034Z,21.91
2017-11-05T23:52:46.785Z,21.90
2017-11-05T23:55:12.569Z,21.99
2017-11-05T23:57:38.323Z,22.02
